sensor_id;sensor_type;location;lat;lon;timestamp;P1;durP1;ratioP1;P2;durP2;ratioP2
29382;SDS011;16365;51.598;7.668;2023-05-10T00:01:05;7.18;;;3.88;;
29382;SDS011;16365;51.598;7.668;2023-05-10T00:03:32;6.40;;;4.03;;
29382;SDS011;16365;51.598;7.668;2023-05-10T00:05:58;6.70;;;3.53;;
29382;SDS011;16365;51.598;7.668;2023-05-10T00:08:25;5.38;;;3.53;;
29382;SDS011;16365;51.598;7.668;2023-05-10T00:10:52;8.40;;;4.00;;
29382;SDS011;16365;51.598;7.668;2023-05-10T00:13:19;5.03;;;3.70;;
29382;SDS011;16365;51.598;7.668;2023-05-10T00:15:46;5.53;;;3.65;;
29382;SDS011;16365;51.598;7.668;2023-05-10T00:18:12;7.25;;;4.15;;
29382;SDS011;16365;51.598;7.668;2023-05-10T00:20:39;8.07;;;4.00;;
29382;SDS011;16365;51.598;7.668;2023-05-10T00:23:05;6.38;;;4.07;;
29382;SDS011;16365;51.598;7.668;2023-05-10T00:25:32;6.32;;;4.00;;
29382;SDS011;16365;51.598;7.668;2023-05-10T00:27:58;5.43;;;3.70;;
29382;SDS011;16365;51.598;7.668;2023-05-10T00:30:27;9.30;;;4.10;;
29382;SDS011;16365;51.598;7.668;2023-05-10T00:32:53;5.25;;;3.83;;
29382;SDS011;16365;51.598;7.668;2023-05-10T00:35:20;5.55;;;4.10;;
29382;SDS011;16365;51.598;7.668;2023-05-10T00:37:47;5.53;;;3.80;;
29382;SDS011;16365;51.598;7.668;2023-05-10T00:40:14;4.80;;;3.58;;
29382;SDS011;16365;51.598;7.668;2023-05-10T00:42:41;4.40;;;3.25;;
29382;SDS011;16365;51.598;7.668;2023-05-10T00:45:07;4.28;;;2.90;;
29382;SDS011;16365;51.598;7.668;2023-05-10T00:47:35;5.25;;;3.47;;
29382;SDS011;16365;51.598;7.668;2023-05-10T00:50:02;6.18;;;2.60;;
29382;SDS011;16365;51.598;7.668;2023-05-10T00:52:29;3.53;;;2.67;;
29382;SDS011;16365;51.598;7.668;2023-05-10T00:54:56;3.38;;;2.55;;
29382;SDS011;16365;51.598;7.668;2023-05-10T00:57:23;4.03;;;2.67;;
29382;SDS011;16365;51.598;7.668;2023-05-10T00:59:49;4.93;;;2.83;;
29382;SDS011;16365;51.598;7.668;2023-05-10T01:02:16;3.75;;;2.60;;
29382;SDS011;16365;51.598;7.668;2023-05-10T01:04:43;2.67;;;2.25;;
29382;SDS011;16365;51.598;7.668;2023-05-10T01:07:09;3.75;;;2.83;;
29382;SDS011;16365;51.598;7.668;2023-05-10T01:09:36;3.30;;;2.58;;
29382;SDS011;16365;51.598;7.668;2023-05-10T01:12:03;6.05;;;2.85;;
29382;SDS011;16365;51.598;7.668;2023-05-10T01:14:33;4.35;;;2.95;;
29382;SDS011;16365;51.598;7.668;2023-05-10T01:17:00;3.83;;;2.92;;
29382;SDS011;16365;51.598;7.668;2023-05-10T01:19:28;3.67;;;2.80;;
29382;SDS011;16365;51.598;7.668;2023-05-10T01:30:35;4.03;;;3.40;;
29382;SDS011;16365;51.598;7.668;2023-05-10T01:33:23;4.53;;;3.55;;
29382;SDS011;16365;51.598;7.668;2023-05-10T01:36:03;7.07;;;4.38;;
29382;SDS011;16365;51.598;7.668;2023-05-10T01:38:40;8.25;;;4.80;;
29382;SDS011;16365;51.598;7.668;2023-05-10T01:41:19;5.47;;;4.47;;
29382;SDS011;16365;51.598;7.668;2023-05-10T01:44:01;9.40;;;4.72;;
29382;SDS011;16365;51.598;7.668;2023-05-10T01:46:43;5.53;;;4.57;;
29382;SDS011;16365;51.598;7.668;2023-05-10T01:49:20;5.70;;;4.35;;
29382;SDS011;16365;51.598;7.668;2023-05-10T01:51:52;9.15;;;4.68;;
29382;SDS011;16365;51.598;7.668;2023-05-10T01:54:21;7.25;;;5.22;;
29382;SDS011;16365;51.598;7.668;2023-05-10T01:56:55;7.95;;;5.25;;
29382;SDS011;16365;51.598;7.668;2023-05-10T01:59:27;9.07;;;5.78;;
29382;SDS011;16365;51.598;7.668;2023-05-10T02:01:57;10.10;;;6.10;;
29382;SDS011;16365;51.598;7.668;2023-05-10T02:04:25;8.15;;;5.97;;
29382;SDS011;16365;51.598;7.668;2023-05-10T02:06:53;9.10;;;6.45;;
29382;SDS011;16365;51.598;7.668;2023-05-10T02:09:21;8.73;;;6.40;;
29382;SDS011;16365;51.598;7.668;2023-05-10T02:11:51;11.55;;;6.43;;
29382;SDS011;16365;51.598;7.668;2023-05-10T02:14:19;10.38;;;7.28;;
29382;SDS011;16365;51.598;7.668;2023-05-10T02:16:47;9.48;;;6.53;;
29382;SDS011;16365;51.598;7.668;2023-05-10T02:19:17;9.50;;;7.15;;
29382;SDS011;16365;51.598;7.668;2023-05-10T02:21:44;9.57;;;6.32;;
29382;SDS011;16365;51.598;7.668;2023-05-10T02:24:12;11.35;;;6.47;;
29382;SDS011;16365;51.598;7.668;2023-05-10T02:26:41;10.68;;;7.03;;
29382;SDS011;16365;51.598;7.668;2023-05-10T02:29:08;10.43;;;6.82;;
29382;SDS011;16365;51.598;7.668;2023-05-10T02:31:35;9.88;;;6.40;;
29382;SDS011;16365;51.598;7.668;2023-05-10T02:34:05;6.57;;;4.70;;
29382;SDS011;16365;51.598;7.668;2023-05-10T02:36:33;7.00;;;5.07;;
29382;SDS011;16365;51.598;7.668;2023-05-10T02:39:01;6.20;;;4.88;;
29382;SDS011;16365;51.598;7.668;2023-05-10T02:41:28;6.82;;;4.55;;
29382;SDS011;16365;51.598;7.668;2023-05-10T02:43:59;7.40;;;5.18;;
29382;SDS011;16365;51.598;7.668;2023-05-10T02:46:27;13.00;;;5.78;;
29382;SDS011;16365;51.598;7.668;2023-05-10T02:48:54;6.15;;;3.70;;
29382;SDS011;16365;51.598;7.668;2023-05-10T02:51:21;7.82;;;3.35;;
29382;SDS011;16365;51.598;7.668;2023-05-10T02:53:51;4.72;;;3.05;;
29382;SDS011;16365;51.598;7.668;2023-05-10T02:56:23;3.58;;;2.42;;
29382;SDS011;16365;51.598;7.668;2023-05-10T02:59:00;3.78;;;2.00;;
29382;SDS011;16365;51.598;7.668;2023-05-10T03:01:27;8.13;;;2.08;;
29382;SDS011;16365;51.598;7.668;2023-05-10T03:03:54;5.20;;;1.85;;
29382;SDS011;16365;51.598;7.668;2023-05-10T03:06:20;2.67;;;1.33;;
29382;SDS011;16365;51.598;7.668;2023-05-10T03:08:47;4.95;;;1.30;;
29382;SDS011;16365;51.598;7.668;2023-05-10T03:11:16;1.42;;;1.33;;
29382;SDS011;16365;51.598;7.668;2023-05-10T03:14:21;2.92;;;1.50;;
29382;SDS011;16365;51.598;7.668;2023-05-10T03:17:22;2.25;;;1.85;;
29382;SDS011;16365;51.598;7.668;2023-05-10T03:19:56;3.47;;;1.80;;
29382;SDS011;16365;51.598;7.668;2023-05-10T03:25:33;3.40;;;1.80;;
29382;SDS011;16365;51.598;7.668;2023-05-10T03:28:01;3.08;;;1.83;;
29382;SDS011;16365;51.598;7.668;2023-05-10T03:30:29;3.72;;;1.88;;
29382;SDS011;16365;51.598;7.668;2023-05-10T03:32:56;4.25;;;1.80;;
29382;SDS011;16365;51.598;7.668;2023-05-10T03:35:23;3.65;;;1.70;;
29382;SDS011;16365;51.598;7.668;2023-05-10T03:37:49;4.40;;;1.90;;
29382;SDS011;16365;51.598;7.668;2023-05-10T03:40:16;3.22;;;2.05;;
29382;SDS011;16365;51.598;7.668;2023-05-10T03:42:43;4.70;;;1.55;;
29382;SDS011;16365;51.598;7.668;2023-05-10T03:45:10;6.00;;;1.90;;
29382;SDS011;16365;51.598;7.668;2023-05-10T03:47:36;4.15;;;2.00;;
29382;SDS011;16365;51.598;7.668;2023-05-10T03:50:03;4.38;;;1.80;;
29382;SDS011;16365;51.598;7.668;2023-05-10T03:52:30;3.58;;;1.73;;
29382;SDS011;16365;51.598;7.668;2023-05-10T03:54:56;5.57;;;1.98;;
29382;SDS011;16365;51.598;7.668;2023-05-10T03:57:23;5.63;;;2.08;;
29382;SDS011;16365;51.598;7.668;2023-05-10T03:59:49;6.47;;;2.28;;
29382;SDS011;16365;51.598;7.668;2023-05-10T04:02:16;4.25;;;2.13;;
29382;SDS011;16365;51.598;7.668;2023-05-10T04:04:42;3.30;;;1.90;;
29382;SDS011;16365;51.598;7.668;2023-05-10T04:07:09;5.07;;;2.17;;
29382;SDS011;16365;51.598;7.668;2023-05-10T04:09:36;5.65;;;2.90;;
29382;SDS011;16365;51.598;7.668;2023-05-10T04:12:03;5.72;;;2.03;;
29382;SDS011;16365;51.598;7.668;2023-05-10T04:14:29;4.30;;;2.28;;
29382;SDS011;16365;51.598;7.668;2023-05-10T04:16:56;4.85;;;2.20;;
29382;SDS011;16365;51.598;7.668;2023-05-10T04:19:22;5.75;;;2.55;;
29382;SDS011;16365;51.598;7.668;2023-05-10T04:21:50;3.38;;;2.40;;
29382;SDS011;16365;51.598;7.668;2023-05-10T04:24:16;5.15;;;2.65;;
29382;SDS011;16365;51.598;7.668;2023-05-10T04:26:42;4.10;;;2.20;;
29382;SDS011;16365;51.598;7.668;2023-05-10T04:29:09;4.32;;;2.63;;
29382;SDS011;16365;51.598;7.668;2023-05-10T04:31:36;4.25;;;3.08;;
29382;SDS011;16365;51.598;7.668;2023-05-10T04:34:02;6.45;;;3.05;;
29382;SDS011;16365;51.598;7.668;2023-05-10T04:36:29;4.38;;;2.88;;
29382;SDS011;16365;51.598;7.668;2023-05-10T04:38:55;4.57;;;3.40;;
29382;SDS011;16365;51.598;7.668;2023-05-10T04:41:21;6.25;;;3.45;;
29382;SDS011;16365;51.598;7.668;2023-05-10T04:43:48;5.68;;;3.33;;
29382;SDS011;16365;51.598;7.668;2023-05-10T04:46:15;6.07;;;3.90;;
29382;SDS011;16365;51.598;7.668;2023-05-10T04:48:42;8.95;;;4.13;;
29382;SDS011;16365;51.598;7.668;2023-05-10T04:51:08;4.68;;;3.10;;
29382;SDS011;16365;51.598;7.668;2023-05-10T04:53:34;7.78;;;3.63;;
29382;SDS011;16365;51.598;7.668;2023-05-10T04:56:01;6.82;;;4.35;;
29382;SDS011;16365;51.598;7.668;2023-05-10T04:58:27;8.38;;;4.00;;
29382;SDS011;16365;51.598;7.668;2023-05-10T05:00:54;6.00;;;4.68;;
29382;SDS011;16365;51.598;7.668;2023-05-10T05:03:20;9.27;;;5.30;;
29382;SDS011;16365;51.598;7.668;2023-05-10T05:05:48;9.63;;;5.18;;
29382;SDS011;16365;51.598;7.668;2023-05-10T05:08:14;9.13;;;5.22;;
29382;SDS011;16365;51.598;7.668;2023-05-10T05:10:41;9.43;;;6.00;;
29382;SDS011;16365;51.598;7.668;2023-05-10T05:13:07;10.05;;;6.80;;
29382;SDS011;16365;51.598;7.668;2023-05-10T05:15:34;11.98;;;7.25;;
29382;SDS011;16365;51.598;7.668;2023-05-10T05:18:00;16.08;;;8.68;;
29382;SDS011;16365;51.598;7.668;2023-05-10T05:20:26;14.13;;;8.07;;
29382;SDS011;16365;51.598;7.668;2023-05-10T05:22:53;14.02;;;8.40;;
29382;SDS011;16365;51.598;7.668;2023-05-10T05:25:20;18.88;;;9.77;;
29382;SDS011;16365;51.598;7.668;2023-05-10T05:27:46;18.65;;;9.57;;
29382;SDS011;16365;51.598;7.668;2023-05-10T05:30:13;19.30;;;9.90;;
29382;SDS011;16365;51.598;7.668;2023-05-10T05:32:39;21.10;;;11.73;;
29382;SDS011;16365;51.598;7.668;2023-05-10T05:35:06;22.92;;;11.88;;
29382;SDS011;16365;51.598;7.668;2023-05-10T05:37:33;20.38;;;11.70;;
29382;SDS011;16365;51.598;7.668;2023-05-10T05:39:59;23.73;;;13.10;;
29382;SDS011;16365;51.598;7.668;2023-05-10T05:42:27;27.50;;;13.75;;
29382;SDS011;16365;51.598;7.668;2023-05-10T05:44:54;24.50;;;13.93;;
29382;SDS011;16365;51.598;7.668;2023-05-10T05:47:20;25.27;;;13.45;;
29382;SDS011;16365;51.598;7.668;2023-05-10T05:49:47;26.95;;;15.30;;
29382;SDS011;16365;51.598;7.668;2023-05-10T05:52:13;29.33;;;15.43;;
29382;SDS011;16365;51.598;7.668;2023-05-10T05:54:40;23.48;;;14.32;;
29382;SDS011;16365;51.598;7.668;2023-05-10T05:57:06;26.20;;;16.05;;
29382;SDS011;16365;51.598;7.668;2023-05-10T05:59:33;26.08;;;15.70;;
29382;SDS011;16365;51.598;7.668;2023-05-10T06:02:00;30.73;;;17.23;;
29382;SDS011;16365;51.598;7.668;2023-05-10T06:04:27;32.13;;;17.42;;
29382;SDS011;16365;51.598;7.668;2023-05-10T06:06:53;34.08;;;19.33;;
29382;SDS011;16365;51.598;7.668;2023-05-10T06:09:20;33.78;;;20.00;;
29382;SDS011;16365;51.598;7.668;2023-05-10T06:11:47;38.17;;;21.42;;
29382;SDS011;16365;51.598;7.668;2023-05-10T06:14:14;38.47;;;22.23;;
29382;SDS011;16365;51.598;7.668;2023-05-10T06:16:41;38.90;;;22.08;;
29382;SDS011;16365;51.598;7.668;2023-05-10T06:19:07;42.28;;;23.50;;
29382;SDS011;16365;51.598;7.668;2023-05-10T06:21:34;37.60;;;22.52;;
29382;SDS011;16365;51.598;7.668;2023-05-10T06:24:00;43.40;;;22.23;;
29382;SDS011;16365;51.598;7.668;2023-05-10T06:26:27;40.45;;;23.05;;
29382;SDS011;16365;51.598;7.668;2023-05-10T06:28:53;39.22;;;23.15;;
29382;SDS011;16365;51.598;7.668;2023-05-10T06:31:19;42.92;;;24.25;;
29382;SDS011;16365;51.598;7.668;2023-05-10T06:33:46;42.60;;;24.85;;
29382;SDS011;16365;51.598;7.668;2023-05-10T06:36:12;46.60;;;24.55;;
29382;SDS011;16365;51.598;7.668;2023-05-10T06:38:39;46.88;;;25.45;;
29382;SDS011;16365;51.598;7.668;2023-05-10T06:41:06;61.47;;;26.77;;
29382;SDS011;16365;51.598;7.668;2023-05-10T06:43:32;48.47;;;26.52;;
29382;SDS011;16365;51.598;7.668;2023-05-10T06:45:59;49.17;;;27.60;;
29382;SDS011;16365;51.598;7.668;2023-05-10T06:48:25;51.33;;;28.90;;
29382;SDS011;16365;51.598;7.668;2023-05-10T06:50:52;52.00;;;29.20;;
29382;SDS011;16365;51.598;7.668;2023-05-10T06:53:18;58.80;;;30.33;;
29382;SDS011;16365;51.598;7.668;2023-05-10T06:55:45;57.17;;;29.77;;
29382;SDS011;16365;51.598;7.668;2023-05-10T06:58:11;58.40;;;31.92;;
29382;SDS011;16365;51.598;7.668;2023-05-10T07:00:38;64.38;;;32.90;;
29382;SDS011;16365;51.598;7.668;2023-05-10T07:03:06;59.78;;;33.50;;
29382;SDS011;16365;51.598;7.668;2023-05-10T07:05:33;54.05;;;30.63;;
29382;SDS011;16365;51.598;7.668;2023-05-10T07:07:59;59.58;;;31.73;;
29382;SDS011;16365;51.598;7.668;2023-05-10T07:10:29;55.90;;;31.05;;
29382;SDS011;16365;51.598;7.668;2023-05-10T07:12:56;55.72;;;30.92;;
29382;SDS011;16365;51.598;7.668;2023-05-10T07:15:22;55.97;;;30.15;;
29382;SDS011;16365;51.598;7.668;2023-05-10T07:17:49;53.47;;;29.10;;
29382;SDS011;16365;51.598;7.668;2023-05-10T07:20:16;56.70;;;30.67;;
29382;SDS011;16365;51.598;7.668;2023-05-10T07:22:42;54.30;;;30.25;;
29382;SDS011;16365;51.598;7.668;2023-05-10T07:25:09;56.72;;;30.25;;
29382;SDS011;16365;51.598;7.668;2023-05-10T07:27:36;58.30;;;31.45;;
29382;SDS011;16365;51.598;7.668;2023-05-10T07:30:03;54.85;;;29.77;;
29382;SDS011;16365;51.598;7.668;2023-05-10T07:32:30;55.85;;;30.63;;
29382;SDS011;16365;51.598;7.668;2023-05-10T07:34:57;63.03;;;33.33;;
29382;SDS011;16365;51.598;7.668;2023-05-10T07:37:24;57.67;;;31.77;;
29382;SDS011;16365;51.598;7.668;2023-05-10T07:39:50;56.78;;;32.00;;
29382;SDS011;16365;51.598;7.668;2023-05-10T07:42:17;63.15;;;33.40;;
29382;SDS011;16365;51.598;7.668;2023-05-10T07:44:43;64.85;;;33.13;;
29382;SDS011;16365;51.598;7.668;2023-05-10T07:47:10;60.05;;;32.78;;
29382;SDS011;16365;51.598;7.668;2023-05-10T07:49:37;57.15;;;32.55;;
29382;SDS011;16365;51.598;7.668;2023-05-10T07:52:03;57.97;;;33.33;;
29382;SDS011;16365;51.598;7.668;2023-05-10T07:54:30;62.00;;;32.33;;
29382;SDS011;16365;51.598;7.668;2023-05-10T07:56:56;56.80;;;34.22;;
29382;SDS011;16365;51.598;7.668;2023-05-10T07:59:22;61.45;;;35.13;;
29382;SDS011;16365;51.598;7.668;2023-05-10T08:01:49;63.95;;;36.53;;
29382;SDS011;16365;51.598;7.668;2023-05-10T08:04:16;64.90;;;37.17;;
29382;SDS011;16365;51.598;7.668;2023-05-10T08:06:42;69.65;;;38.97;;
29382;SDS011;16365;51.598;7.668;2023-05-10T08:09:09;63.70;;;37.58;;
29382;SDS011;16365;51.598;7.668;2023-05-10T08:11:35;61.67;;;37.55;;
29382;SDS011;16365;51.598;7.668;2023-05-10T08:14:02;65.05;;;36.60;;
29382;SDS011;16365;51.598;7.668;2023-05-10T08:16:28;67.15;;;37.65;;
29382;SDS011;16365;51.598;7.668;2023-05-10T08:18:55;66.45;;;37.20;;
29382;SDS011;16365;51.598;7.668;2023-05-10T08:21:21;64.18;;;36.28;;
29382;SDS011;16365;51.598;7.668;2023-05-10T08:23:48;63.53;;;34.90;;
29382;SDS011;16365;51.598;7.668;2023-05-10T08:26:15;63.85;;;37.00;;
29382;SDS011;16365;51.598;7.668;2023-05-10T08:28:41;67.60;;;35.85;;
29382;SDS011;16365;51.598;7.668;2023-05-10T08:31:08;59.58;;;36.83;;
29382;SDS011;16365;51.598;7.668;2023-05-10T08:33:35;67.38;;;37.65;;
29382;SDS011;16365;51.598;7.668;2023-05-10T08:36:01;64.15;;;38.85;;
29382;SDS011;16365;51.598;7.668;2023-05-10T08:38:28;67.22;;;36.22;;
29382;SDS011;16365;51.598;7.668;2023-05-10T08:40:55;68.60;;;37.85;;
29382;SDS011;16365;51.598;7.668;2023-05-10T08:43:26;63.42;;;37.05;;
29382;SDS011;16365;51.598;7.668;2023-05-10T08:46:00;63.10;;;37.47;;
29382;SDS011;16365;51.598;7.668;2023-05-10T08:48:29;49.17;;;30.60;;
29382;SDS011;16365;51.598;7.668;2023-05-10T08:50:57;52.95;;;32.53;;
29382;SDS011;16365;51.598;7.668;2023-05-10T08:53:26;53.95;;;30.58;;
29382;SDS011;16365;51.598;7.668;2023-05-10T08:55:53;53.85;;;29.98;;
29382;SDS011;16365;51.598;7.668;2023-05-10T08:58:20;48.10;;;27.67;;
29382;SDS011;16365;51.598;7.668;2023-05-10T09:00:50;42.60;;;26.25;;
29382;SDS011;16365;51.598;7.668;2023-05-10T09:03:18;46.10;;;25.30;;
29382;SDS011;16365;51.598;7.668;2023-05-10T09:05:46;42.90;;;25.38;;
29382;SDS011;16365;51.598;7.668;2023-05-10T09:08:14;41.50;;;23.50;;
29382;SDS011;16365;51.598;7.668;2023-05-10T09:13:10;33.45;;;20.55;;
29382;SDS011;16365;51.598;7.668;2023-05-10T09:15:38;33.53;;;20.52;;
29382;SDS011;16365;51.598;7.668;2023-05-10T09:18:04;34.35;;;20.40;;
29382;SDS011;16365;51.598;7.668;2023-05-10T09:20:31;35.30;;;20.67;;
29382;SDS011;16365;51.598;7.668;2023-05-10T09:22:57;37.97;;;20.63;;
29382;SDS011;16365;51.598;7.668;2023-05-10T09:25:24;40.72;;;21.15;;
29382;SDS011;16365;51.598;7.668;2023-05-10T09:27:50;36.03;;;20.58;;
29382;SDS011;16365;51.598;7.668;2023-05-10T09:30:30;40.20;;;22.33;;
29382;SDS011;16365;51.598;7.668;2023-05-10T09:32:57;41.42;;;21.70;;
29382;SDS011;16365;51.598;7.668;2023-05-10T09:35:26;36.75;;;21.50;;
29382;SDS011;16365;51.598;7.668;2023-05-10T09:37:56;32.63;;;19.67;;
29382;SDS011;16365;51.598;7.668;2023-05-10T09:40:28;39.28;;;20.35;;
29382;SDS011;16365;51.598;7.668;2023-05-10T09:43:02;35.10;;;18.80;;
29382;SDS011;16365;51.598;7.668;2023-05-10T09:45:32;36.65;;;19.52;;
29382;SDS011;16365;51.598;7.668;2023-05-10T09:48:03;36.08;;;20.35;;
29382;SDS011;16365;51.598;7.668;2023-05-10T09:50:31;47.35;;;20.20;;
29382;SDS011;16365;51.598;7.668;2023-05-10T09:52:58;36.40;;;20.33;;
29382;SDS011;16365;51.598;7.668;2023-05-10T09:55:39;33.35;;;19.35;;
29382;SDS011;16365;51.598;7.668;2023-05-10T09:58:07;33.00;;;19.02;;
29382;SDS011;16365;51.598;7.668;2023-05-10T10:00:42;36.42;;;19.50;;
29382;SDS011;16365;51.598;7.668;2023-05-10T10:03:13;36.25;;;20.58;;
29382;SDS011;16365;51.598;7.668;2023-05-10T10:05:42;33.95;;;19.55;;
29382;SDS011;16365;51.598;7.668;2023-05-10T10:08:10;33.33;;;18.65;;
29382;SDS011;16365;51.598;7.668;2023-05-10T10:10:39;32.58;;;19.30;;
29382;SDS011;16365;51.598;7.668;2023-05-10T10:13:11;35.00;;;19.92;;
29382;SDS011;16365;51.598;7.668;2023-05-10T10:15:39;33.70;;;19.40;;
29382;SDS011;16365;51.598;7.668;2023-05-10T10:18:06;34.08;;;18.52;;
29382;SDS011;16365;51.598;7.668;2023-05-10T10:20:35;27.83;;;16.23;;
29382;SDS011;16365;51.598;7.668;2023-05-10T10:23:03;28.00;;;15.63;;
29382;SDS011;16365;51.598;7.668;2023-05-10T10:25:30;29.30;;;16.77;;
29382;SDS011;16365;51.598;7.668;2023-05-10T10:28:01;24.77;;;15.27;;
29382;SDS011;16365;51.598;7.668;2023-05-10T10:30:39;30.38;;;16.75;;
29382;SDS011;16365;51.598;7.668;2023-05-10T10:33:13;29.92;;;16.45;;
29382;SDS011;16365;51.598;7.668;2023-05-10T10:35:54;24.65;;;15.48;;
29382;SDS011;16365;51.598;7.668;2023-05-10T10:38:23;26.70;;;14.57;;
29382;SDS011;16365;51.598;7.668;2023-05-10T10:41:03;25.23;;;14.65;;
29382;SDS011;16365;51.598;7.668;2023-05-10T10:43:36;26.00;;;14.18;;
29382;SDS011;16365;51.598;7.668;2023-05-10T10:48:40;20.50;;;11.20;;
29382;SDS011;16365;51.598;7.668;2023-05-10T10:51:07;16.40;;;11.00;;
29382;SDS011;16365;51.598;7.668;2023-05-10T10:53:38;17.58;;;10.30;;
29382;SDS011;16365;51.598;7.668;2023-05-10T10:56:07;18.08;;;10.43;;
29382;SDS011;16365;51.598;7.668;2023-05-10T10:58:39;17.65;;;11.07;;
29382;SDS011;16365;51.598;7.668;2023-05-10T11:01:12;19.17;;;10.27;;
29382;SDS011;16365;51.598;7.668;2023-05-10T11:03:41;17.90;;;11.48;;
29382;SDS011;16365;51.598;7.668;2023-05-10T11:06:31;19.95;;;11.02;;
29382;SDS011;16365;51.598;7.668;2023-05-10T11:09:00;17.00;;;10.82;;
29382;SDS011;16365;51.598;7.668;2023-05-10T11:11:32;22.95;;;11.30;;
29382;SDS011;16365;51.598;7.668;2023-05-10T11:14:04;22.63;;;11.60;;
29382;SDS011;16365;51.598;7.668;2023-05-10T11:16:40;20.10;;;10.98;;
29382;SDS011;16365;51.598;7.668;2023-05-10T11:19:09;21.08;;;12.60;;
29382;SDS011;16365;51.598;7.668;2023-05-10T11:21:47;19.30;;;11.90;;
29382;SDS011;16365;51.598;7.668;2023-05-10T11:24:20;23.90;;;12.27;;
29382;SDS011;16365;51.598;7.668;2023-05-10T11:26:51;22.85;;;12.45;;
29382;SDS011;16365;51.598;7.668;2023-05-10T11:29:19;19.52;;;11.35;;
29382;SDS011;16365;51.598;7.668;2023-05-10T11:31:46;19.20;;;11.18;;
29382;SDS011;16365;51.598;7.668;2023-05-10T11:34:23;20.20;;;11.55;;
29382;SDS011;16365;51.598;7.668;2023-05-10T11:36:51;30.30;;;16.52;;
29382;SDS011;16365;51.598;7.668;2023-05-10T11:41:49;32.67;;;18.17;;
29382;SDS011;16365;51.598;7.668;2023-05-10T11:44:17;37.72;;;18.80;;
29382;SDS011;16365;51.598;7.668;2023-05-10T11:46:44;34.85;;;19.98;;
29382;SDS011;16365;51.598;7.668;2023-05-10T11:49:10;36.60;;;19.70;;
29382;SDS011;16365;51.598;7.668;2023-05-10T11:51:38;32.58;;;19.45;;
29382;SDS011;16365;51.598;7.668;2023-05-10T11:54:06;31.75;;;18.45;;
29382;SDS011;16365;51.598;7.668;2023-05-10T11:56:37;34.03;;;17.25;;
29382;SDS011;16365;51.598;7.668;2023-05-10T11:59:04;30.33;;;16.60;;
29382;SDS011;16365;51.598;7.668;2023-05-10T12:01:31;30.80;;;17.80;;
29382;SDS011;16365;51.598;7.668;2023-05-10T12:03:58;34.72;;;19.00;;
29382;SDS011;16365;51.598;7.668;2023-05-10T12:06:27;33.50;;;18.65;;
29382;SDS011;16365;51.598;7.668;2023-05-10T12:08:55;32.25;;;19.33;;
29382;SDS011;16365;51.598;7.668;2023-05-10T12:11:26;34.13;;;18.80;;
29382;SDS011;16365;51.598;7.668;2023-05-10T12:13:54;29.75;;;17.05;;
29382;SDS011;16365;51.598;7.668;2023-05-10T12:16:24;28.10;;;16.63;;
29382;SDS011;16365;51.598;7.668;2023-05-10T12:18:56;27.00;;;16.50;;
29382;SDS011;16365;51.598;7.668;2023-05-10T12:21:25;28.77;;;16.02;;
29382;SDS011;16365;51.598;7.668;2023-05-10T12:26:22;27.58;;;16.15;;
29382;SDS011;16365;51.598;7.668;2023-05-10T12:29:01;29.65;;;16.30;;
29382;SDS011;16365;51.598;7.668;2023-05-10T12:34:23;27.95;;;16.17;;
29382;SDS011;16365;51.598;7.668;2023-05-10T12:39:19;32.85;;;18.20;;
29382;SDS011;16365;51.598;7.668;2023-05-10T12:41:45;34.47;;;20.83;;
29382;SDS011;16365;51.598;7.668;2023-05-10T12:44:12;32.53;;;21.77;;
29382;SDS011;16365;51.598;7.668;2023-05-10T12:46:38;30.15;;;19.98;;
29382;SDS011;16365;51.598;7.668;2023-05-10T12:49:05;29.50;;;20.02;;
29382;SDS011;16365;51.598;7.668;2023-05-10T12:51:34;31.70;;;20.33;;
29382;SDS011;16365;51.598;7.668;2023-05-10T12:54:03;33.80;;;19.83;;
29382;SDS011;16365;51.598;7.668;2023-05-10T12:56:30;31.67;;;19.13;;
29382;SDS011;16365;51.598;7.668;2023-05-10T12:58:56;26.83;;;17.70;;
29382;SDS011;16365;51.598;7.668;2023-05-10T13:01:22;32.72;;;19.75;;
29382;SDS011;16365;51.598;7.668;2023-05-10T13:03:49;28.77;;;19.52;;
29382;SDS011;16365;51.598;7.668;2023-05-10T13:06:15;34.13;;;20.73;;
29382;SDS011;16365;51.598;7.668;2023-05-10T13:08:42;35.72;;;22.10;;
29382;SDS011;16365;51.598;7.668;2023-05-10T13:11:08;28.77;;;17.10;;
29382;SDS011;16365;51.598;7.668;2023-05-10T13:13:35;28.05;;;17.27;;
29382;SDS011;16365;51.598;7.668;2023-05-10T13:16:01;26.42;;;16.35;;
29382;SDS011;16365;51.598;7.668;2023-05-10T13:18:28;23.58;;;15.07;;
29382;SDS011;16365;51.598;7.668;2023-05-10T13:20:56;23.02;;;16.20;;
29382;SDS011;16365;51.598;7.668;2023-05-10T13:23:22;28.73;;;18.58;;
29382;SDS011;16365;51.598;7.668;2023-05-10T13:25:49;23.45;;;16.48;;
29382;SDS011;16365;51.598;7.668;2023-05-10T13:28:16;30.80;;;17.38;;
29382;SDS011;16365;51.598;7.668;2023-05-10T13:30:42;25.50;;;16.70;;
29382;SDS011;16365;51.598;7.668;2023-05-10T13:33:09;25.35;;;16.10;;
29382;SDS011;16365;51.598;7.668;2023-05-10T13:35:36;25.95;;;15.65;;
29382;SDS011;16365;51.598;7.668;2023-05-10T13:38:02;22.17;;;14.75;;
29382;SDS011;16365;51.598;7.668;2023-05-10T13:40:29;22.67;;;15.23;;
29382;SDS011;16365;51.598;7.668;2023-05-10T13:42:57;19.13;;;13.18;;
29382;SDS011;16365;51.598;7.668;2023-05-10T13:45:23;16.50;;;12.35;;
29382;SDS011;16365;51.598;7.668;2023-05-10T13:47:50;19.10;;;12.98;;
29382;SDS011;16365;51.598;7.668;2023-05-10T13:50:16;21.67;;;13.15;;
29382;SDS011;16365;51.598;7.668;2023-05-10T13:52:43;17.33;;;12.13;;
29382;SDS011;16365;51.598;7.668;2023-05-10T13:55:09;16.02;;;9.52;;
29382;SDS011;16365;51.598;7.668;2023-05-10T13:57:38;16.35;;;10.45;;
29382;SDS011;16365;51.598;7.668;2023-05-10T14:00:05;20.23;;;11.05;;
29382;SDS011;16365;51.598;7.668;2023-05-10T14:02:32;19.27;;;11.60;;
29382;SDS011;16365;51.598;7.668;2023-05-10T14:04:58;21.23;;;12.18;;
29382;SDS011;16365;51.598;7.668;2023-05-10T14:07:25;25.77;;;12.63;;
29382;SDS011;16365;51.598;7.668;2023-05-10T14:09:52;20.35;;;12.27;;
29382;SDS011;16365;51.598;7.668;2023-05-10T14:12:18;22.77;;;11.68;;
29382;SDS011;16365;51.598;7.668;2023-05-10T14:14:46;21.67;;;14.35;;
29382;SDS011;16365;51.598;7.668;2023-05-10T14:17:13;24.57;;;13.47;;
29382;SDS011;16365;51.598;7.668;2023-05-10T14:19:39;22.15;;;14.77;;
29382;SDS011;16365;51.598;7.668;2023-05-10T14:22:06;24.65;;;15.45;;
29382;SDS011;16365;51.598;7.668;2023-05-10T14:24:32;20.35;;;14.43;;
29382;SDS011;16365;51.598;7.668;2023-05-10T14:26:59;24.83;;;14.80;;
29382;SDS011;16365;51.598;7.668;2023-05-10T14:29:26;25.05;;;15.75;;
29382;SDS011;16365;51.598;7.668;2023-05-10T14:31:53;21.50;;;14.48;;
29382;SDS011;16365;51.598;7.668;2023-05-10T14:34:19;25.83;;;15.63;;
29382;SDS011;16365;51.598;7.668;2023-05-10T14:36:46;20.90;;;15.38;;
29382;SDS011;16365;51.598;7.668;2023-05-10T14:39:13;24.08;;;15.82;;
29382;SDS011;16365;51.598;7.668;2023-05-10T14:41:39;23.35;;;14.75;;
29382;SDS011;16365;51.598;7.668;2023-05-10T14:44:08;20.90;;;16.08;;
29382;SDS011;16365;51.598;7.668;2023-05-10T14:46:36;22.98;;;15.52;;
29382;SDS011;16365;51.598;7.668;2023-05-10T14:49:03;22.00;;;14.40;;
29382;SDS011;16365;51.598;7.668;2023-05-10T14:51:29;19.30;;;13.85;;
29382;SDS011;16365;51.598;7.668;2023-05-10T14:53:56;24.23;;;14.25;;
29382;SDS011;16365;51.598;7.668;2023-05-10T14:56:22;17.20;;;12.63;;
29382;SDS011;16365;51.598;7.668;2023-05-10T14:58:49;23.20;;;13.55;;
29382;SDS011;16365;51.598;7.668;2023-05-10T15:01:16;23.03;;;13.03;;
29382;SDS011;16365;51.598;7.668;2023-05-10T15:03:43;16.65;;;11.40;;